ADDS METAR Data INFO
IDs: Format: Raw Decoded Include TAF

Data at: 1400 UTC 17 Dec 2017

K5M9 171335Z AUTO 20004KT 10SM DZ OVC065 04/02 A3015 RMK AO2 T00430017
K5M9 171315Z AUTO 19004KT 10SM -RA SCT065 OVC100 04/02 A3014 RMK AO2 T00440016
K5M9 171255Z AUTO 17003KT 10SM -DZ SCT080 OVC100 04/01 A3014 RMK AO2 T00430012
K5M9 171235Z AUTO 00000KT 10SM -RA OVC080 05/01 A3016 RMK AO2 T00450010
K5M9 171215Z AUTO 00000KT 10SM -RA OVC090 05/00 A3017 RMK AO2 T00500001
K5M9 171155Z AUTO 00000KT 10SM DZ BKN090 OVC110 05/00 A3018 RMK AO2 T00490004 10060 20043
K5M9 171135Z AUTO 20003KT 10SM -RA OVC090 06/M01 A3017 RMK AO2 T00561006
K5M9 171115Z AUTO 21004KT 10SM OVC100 06/M01 A3018 RMK AO2 T00571008
K5M9 171055Z AUTO 21003KT 10SM OVC100 06/M01 A3016 RMK AO2 T00551006
K5M9 171035Z AUTO 22004KT 10SM OVC100 06/M01 A3015 RMK AO2 T00601010
K5M9 171015Z AUTO 20004KT 10SM OVC100 06/M01 A3015 RMK AO2 T00571006
K5M9 170955Z AUTO 20003KT 10SM OVC110 06/M01 A3014 RMK AO2 T00601009
K5M9 170935Z AUTO 19004KT 10SM BKN110 06/M01 A3015 RMK AO2 T00581008
K5M9 170915Z AUTO 18003KT 10SM BKN120 06/M01 A3014 RMK AO2 T00561007
K5M9 170855Z AUTO 19004KT 10SM OVC120 06/M01 A3015 RMK AO2 T00571007
K5M9 170835Z AUTO 18004KT 10SM BKN110 06/M01 A3015 RMK AO2 T00561006
K5M9 170815Z AUTO 18004KT 10SM SCT120 06/00 A3016 RMK AO2 T00551005
K5M9 170755Z AUTO 20003KT 10SM CLR 05/M01 A3016 RMK AO2 T00531006
K5M9 170735Z AUTO 21005KT 10SM CLR 05/M01 A3016 RMK AO2 T00501007
K5M9 170715Z AUTO 00000KT 10SM CLR 05/M01 A3015 RMK AO2 T00461007
K5M9 170655Z AUTO 00000KT 10SM CLR 05/M01 A3013 RMK AO2 T00461010
K5M9 170635Z AUTO 00000KT 10SM CLR 04/M01 A3014 RMK AO2 T00441010
K5M9 170615Z AUTO 20005KT 10SM CLR 05/M01 A3015 RMK AO2 T00481010
K5M9 170555Z AUTO 20004KT 10SM CLR 05/M01 A3016 RMK AO2 T00501010 10059 20042 401131022
K5M9 170535Z AUTO 19004KT 10SM CLR 05/M01 A3016 RMK AO2 T00501010
K5M9 170515Z AUTO 19004KT 10SM CLR 04/M01 A3016 RMK AO2 T00441014
K5M9 170455Z AUTO 19003KT 10SM CLR 04/M02 A3017 RMK AO2 T00431016
K5M9 170435Z AUTO 20005KT 10SM CLR 05/M02 A3017 RMK AO2 T00471016
K5M9 170415Z AUTO 20003KT 10SM CLR 05/M01 A3017 RMK AO2 T00471015
K5M9 170355Z AUTO 19004KT 10SM CLR 05/M02 A3017 RMK AO2 T00451016
K5M9 170335Z AUTO 20003KT 10SM CLR 05/M02 A3016 RMK AO2 T00461017
K5M9 170315Z AUTO 22003KT 10SM CLR 05/M02 A3016 RMK AO2 T00511017
K5M9 170255Z AUTO 20005KT 10SM CLR 05/M02 A3016 RMK AO2 T00491016
K5M9 170235Z AUTO 20004KT 10SM CLR 05/M02 A3015 RMK AO2 T00501017
K5M9 170215Z AUTO 20004KT 10SM CLR 05/M02 A3016 RMK AO2 T00491017
K5M9 170155Z AUTO 21004KT 10SM CLR 05/M02 A3015 RMK AO2 T00451019
K5M9 170135Z AUTO 21004KT 10SM CLR 05/M02 A3014 RMK AO2 T00471018
K5M9 170115Z AUTO 21006KT 10SM CLR 05/M02 A3014 RMK AO2 T00501017
K5M9 170055Z AUTO 20005KT 10SM CLR 05/M02 A3014 RMK AO2 T00531017
K5M9 170035Z AUTO 19005KT 10SM CLR 06/M02 A3014 RMK AO2 T00571016
K5M9 170015Z AUTO 19005KT 10SM CLR 05/M02 A3014 RMK AO2 T00501018
K5M9 162355Z AUTO 19004KT 10SM CLR 05/M02 A3012 RMK AO2 T00491020 10113 20049
K5M9 162335Z AUTO 20004KT 10SM CLR 06/M02 A3012 RMK AO2 T00551020
K5M9 162315Z AUTO 20005KT 10SM CLR 06/M02 A3012 RMK AO2 T00631020
K5M9 162255Z AUTO 21005KT 10SM CLR 07/M02 A3012 RMK AO2 T00671020
K5M9 162235Z AUTO 20004KT 10SM CLR 07/M02 A3011 RMK AO2 T00721020
K5M9 162215Z AUTO 19003KT 10SM CLR 08/M02 A3011 RMK AO2 T00791022
K5M9 162155Z AUTO 20004KT 10SM CLR 09/M02 A3011 RMK AO2 T00851020
K5M9 162135Z AUTO 20007KT 020V220 10SM CLR 09/M02 A3010 RMK AO2 T00911017
K5M9 162115Z AUTO 22004KT 10SM CLR 10/M02 A3009 RMK AO2 T00971025
K5M9 162055Z AUTO 20009G17KT 10SM CLR 10/M03 A3009 RMK AO2 T01031027
K5M9 162035Z AUTO 23009G16KT 10SM CLR 11/M02 A3009 RMK AO2 T01121022
K5M9 162015Z AUTO 23011G15KT 10SM CLR 11/M02 A3009 RMK AO2 T01121023
K5M9 161955Z AUTO 23008G16KT 10SM CLR 11/M02 A3009 RMK AO2 T01111024
K5M9 161935Z AUTO 21009G19KT 180V310 10SM CLR 11/M02 A3009 RMK AO2 T01101022
K5M9 161915Z AUTO 23015G22KT 10SM CLR 11/M02 A3010 RMK AO2 T01051022
K5M9 161855Z AUTO 22012G18KT 10SM CLR 11/M02 A3010 RMK AO2 T01091020
K5M9 161835Z AUTO 21011G19KT 10SM CLR 11/M01 A3011 RMK AO2 T01051012
K5M9 161815Z AUTO 23014G25KT 10SM CLR 10/M02 A3012 RMK AO2 T00971016
K5M9 161755Z AUTO 23011G19KT 10SM CLR 10/M01 A3013 RMK AO2 T00971010 10097 21022
K5M9 161735Z AUTO 23010G15KT 10SM CLR 09/M01 A3014 RMK AO2 T00901011
K5M9 161715Z AUTO 22008G15KT 10SM CLR 09/M01 A3015 RMK AO2 T00851010
K5M9 161655Z AUTO 23010G22KT 10SM CLR 08/M01 A3015 RMK AO2 T00751015
K5M9 161635Z AUTO 23016G20KT 10SM CLR 07/M01 A3016 RMK AO2 T00701015
K5M9 161615Z AUTO 22009G17KT 10SM CLR 06/M01 A3017 RMK AO2 T00631013
K5M9 161555Z AUTO 22011G15KT 10SM CLR 05/M01 A3017 RMK AO2 T00541015
K5M9 161535Z AUTO 23011G16KT 10SM CLR 05/M02 A3016 RMK AO2 T00451017
K5M9 161515Z AUTO 21006KT 10SM CLR 03/M02 A3016 RMK AO2 T00321020
K5M9 161455Z AUTO 21009G15KT 10SM CLR 02/M02 A3015 RMK AO2 T00241020
K5M9 161435Z AUTO 21007KT 10SM CLR 02/M02 A3014 RMK AO2 T00151023
K5M9 161415Z AUTO 20005KT 10SM CLR 00/M03 A3014 RMK AO2 T00031026
K5M9 161355Z AUTO 20005KT 10SM CLR 00/M03 A3013 RMK AO2 T10021030
K5M9 161335Z AUTO 21005KT 10SM CLR M01/M03 A3014 RMK AO2 T10091032
K5M9 161315Z AUTO 20006KT 10SM CLR M02/M03 A3014 RMK AO2 T10161032
K5M9 161255Z AUTO 21005KT 10SM CLR M02/M03 A3014 RMK AO2 T10201035
K5M9 161235Z AUTO 20005KT 10SM CLR M02/M04 A3014 RMK AO2 T10171037
K5M9 161215Z AUTO 20004KT 10SM CLR M02/M03 A3013 RMK AO2 T10171032
K5M9 161155Z AUTO 20006KT 10SM CLR M02/M04 A3013 RMK AO2 T10201036 10005 21020
K5M9 161135Z AUTO 20006KT 10SM CLR M02/M04 A3012 RMK AO2 T10201037
K5M9 161115Z AUTO 20006KT 10SM CLR M01/M04 A3012 RMK AO2 T10151036
K5M9 161055Z AUTO 19006KT 10SM CLR M02/M04 A3012 RMK AO2 T10161038
K5M9 161035Z AUTO 21005KT 10SM CLR M01/M04 A3012 RMK AO2 T10121037
K5M9 161015Z AUTO 21004KT 10SM CLR M01/M04 A3012 RMK AO2 T10111037
K5M9 160955Z AUTO 20005KT 10SM CLR M01/M04 A3013 RMK AO2 T10151039
K5M9 160935Z AUTO 21004KT 10SM CLR M01/M04 A3013 RMK AO2 T10101038
K5M9 160915Z AUTO 20006KT 10SM CLR M01/M04 A3013 RMK AO2 T10101038
K5M9 160855Z AUTO 21005KT 10SM CLR M01/M04 A3014 RMK AO2 T10071037
K5M9 160835Z AUTO 20006KT 10SM CLR M01/M04 A3013 RMK AO2 T10111037
K5M9 160815Z AUTO 20005KT 10SM CLR M01/M04 A3013 RMK AO2 T10091038
K5M9 160755Z AUTO 21005KT 10SM CLR M01/M04 A3013 RMK AO2 T10071037
K5M9 160735Z AUTO 21005KT 10SM CLR 00/M04 A3013 RMK AO2 T10041037
K5M9 160715Z AUTO 21005KT 10SM CLR 00/M04 A3013 RMK AO2 T10011036
K5M9 160655Z AUTO 21005KT 10SM CLR 00/M04 A3013 RMK AO2 T10011036
K5M9 160635Z AUTO 21004KT 10SM CLR 00/M04 A3013 RMK AO2 T00001037
K5M9 160615Z AUTO 21006KT 10SM CLR 00/M04 A3013 RMK AO2 T00021036
K5M9 160555Z AUTO 21005KT 10SM CLR 00/M04 A3012 RMK AO2 T00021036 10026 21005 400601015
K5M9 160535Z AUTO 22005KT 10SM CLR 00/M04 A3013 RMK AO2 T00011036
K5M9 160515Z AUTO 21005KT 10SM CLR 00/M04 A3013 RMK AO2 T10041038
K5M9 160455Z AUTO 21005KT 10SM CLR 00/M04 A3013 RMK AO2 T10021040
K5M9 160435Z AUTO 21005KT 10SM CLR 00/M04 A3013 RMK AO2 T10031039
K5M9 160415Z AUTO 20005KT 10SM CLR 00/M04 A3013 RMK AO2 T10041041
K5M9 160355Z AUTO 21004KT 10SM CLR 00/M04 A3013 RMK AO2 T10021040
K5M9 160335Z AUTO 20004KT 10SM CLR 00/M04 A3012 RMK AO2 T00021040
K5M9 160315Z AUTO 20005KT 10SM CLR 00/M04 A3012 RMK AO2 T00041039
K5M9 160255Z AUTO 20005KT 10SM CLR 01/M04 A3012 RMK AO2 T00051041
K5M9 160235Z AUTO 19004KT 10SM CLR 00/M04 A3012 RMK AO2 T00031042
K5M9 160215Z AUTO 19004KT 10SM CLR 01/M04 A3012 RMK AO2 T00051045